sensor_id;sensor_type;location;lat;lon;timestamp;pressure;altitude;pressure_sealevel;temperature;humidity
25650;BME280;13505;45.196;5.696;2023-04-28T06:02:09;99304.47;;;16.44;63.34
25650;BME280;13505;45.196;5.696;2023-04-28T06:07:00;99299.97;;;16.45;63.40
25650;BME280;13505;45.196;5.696;2023-04-28T06:11:50;99308.41;;;16.52;64.33
25650;BME280;13505;45.196;5.696;2023-04-28T06:16:40;99297.44;;;16.95;64.20
25650;BME280;13505;45.196;5.696;2023-04-28T06:21:31;99301.41;;;17.40;62.79
25650;BME280;13505;45.196;5.696;2023-04-28T06:26:22;99296.09;;;17.40;62.10
25650;BME280;13505;45.196;5.696;2023-04-28T06:31:13;99286.88;;;17.44;61.18
25650;BME280;13505;45.196;5.696;2023-04-28T06:36:03;99301.66;;;17.24;61.84
25650;BME280;13505;45.196;5.696;2023-04-28T06:40:54;99303.63;;;17.09;62.23
25650;BME280;13505;45.196;5.696;2023-04-28T06:45:44;99312.97;;;17.27;62.82
25650;BME280;13505;45.196;5.696;2023-04-28T06:50:36;99310.63;;;17.60;61.88
25650;BME280;13505;45.196;5.696;2023-04-28T06:55:26;99304.84;;;17.91;61.74
25650;BME280;13505;45.196;5.696;2023-04-28T07:00:17;99315.22;;;18.42;59.63
25650;BME280;13505;45.196;5.696;2023-04-28T07:05:07;99311.72;;;18.42;59.81
25650;BME280;13505;45.196;5.696;2023-04-28T07:09:58;99314.19;;;18.68;59.28
25650;BME280;13505;45.196;5.696;2023-04-28T07:14:49;99301.69;;;18.91;56.88
25650;BME280;13505;45.196;5.696;2023-04-28T07:19:40;99310.00;;;19.11;55.96
25650;BME280;13505;45.196;5.696;2023-04-28T07:24:31;99304.53;;;19.01;55.05
25650;BME280;13505;45.196;5.696;2023-04-28T07:29:21;99310.97;;;19.10;55.32
25650;BME280;13505;45.196;5.696;2023-04-28T07:34:11;99304.34;;;19.60;53.67
25650;BME280;13505;45.196;5.696;2023-04-28T07:39:02;99315.56;;;20.19;52.42
25650;BME280;13505;45.196;5.696;2023-04-28T07:43:52;99301.38;;;20.71;50.04
25650;BME280;13505;45.196;5.696;2023-04-28T07:48:43;99296.28;;;20.89;49.32
25650;BME280;13505;45.196;5.696;2023-04-28T07:53:33;99292.59;;;21.21;49.08
25650;BME280;13505;45.196;5.696;2023-04-28T07:58:24;99299.16;;;20.97;48.68
25650;BME280;13505;45.196;5.696;2023-04-28T08:03:14;99299.41;;;20.73;49.84
25650;BME280;13505;45.196;5.696;2023-04-28T08:08:05;99292.88;;;20.66;49.94
25650;BME280;13505;45.196;5.696;2023-04-28T08:12:56;99280.53;;;20.74;49.73
25650;BME280;13505;45.196;5.696;2023-04-28T08:17:46;99274.31;;;20.95;49.67
25650;BME280;13505;45.196;5.696;2023-04-28T08:22:36;99284.19;;;21.36;48.70
25650;BME280;13505;45.196;5.696;2023-04-28T08:27:27;99287.16;;;21.52;47.98
25650;BME280;13505;45.196;5.696;2023-04-28T08:32:17;99287.78;;;21.85;47.94
25650;BME280;13505;45.196;5.696;2023-04-28T08:37:08;99278.16;;;22.22;46.40
25650;BME280;13505;45.196;5.696;2023-04-28T08:41:58;99288.44;;;22.47;45.54
25650;BME280;13505;45.196;5.696;2023-04-28T08:46:53;99294.06;;;22.73;44.38
25650;BME280;13505;45.196;5.696;2023-04-28T08:51:49;99292.13;;;22.65;44.33
25650;BME280;13505;45.196;5.696;2023-04-28T08:56:40;99270.06;;;22.99;44.75
25650;BME280;13505;45.196;5.696;2023-04-28T09:01:34;99286.84;;;23.11;44.31
25650;BME280;13505;45.196;5.696;2023-04-28T09:06:25;99277.13;;;23.00;44.01
25650;BME280;13505;45.196;5.696;2023-04-28T09:11:17;99291.69;;;23.08;43.83
25650;BME280;13505;45.196;5.696;2023-04-28T09:16:08;99275.81;;;22.77;44.57
25650;BME280;13505;45.196;5.696;2023-04-28T09:21:06;99280.97;;;23.26;43.67
25650;BME280;13505;45.196;5.696;2023-04-28T09:26:00;99273.63;;;23.28;43.72
25650;BME280;13505;45.196;5.696;2023-04-28T09:30:51;99271.47;;;23.32;43.14
25650;BME280;13505;45.196;5.696;2023-04-28T09:35:42;99261.72;;;23.67;43.84
25650;BME280;13505;45.196;5.696;2023-04-28T09:40:51;99256.56;;;23.55;43.49
25650;BME280;13505;45.196;5.696;2023-04-28T09:45:42;99246.34;;;23.59;43.12
25650;BME280;13505;45.196;5.696;2023-04-28T09:50:39;99229.59;;;23.65;42.61
25650;BME280;13505;45.196;5.696;2023-04-28T09:55:31;99229.97;;;23.52;43.22
25650;BME280;13505;45.196;5.696;2023-04-28T10:00:24;99224.69;;;23.61;43.43
25650;BME280;13505;45.196;5.696;2023-04-28T10:05:15;99212.84;;;24.43;42.47
25650;BME280;13505;45.196;5.696;2023-04-28T10:10:06;99219.06;;;25.04;40.74
25650;BME280;13505;45.196;5.696;2023-04-28T10:14:57;99213.50;;;25.57;40.31
25650;BME280;13505;45.196;5.696;2023-04-28T10:19:48;99219.41;;;26.02;39.95
25650;BME280;13505;45.196;5.696;2023-04-28T10:25:07;99215.44;;;26.55;38.92
25650;BME280;13505;45.196;5.696;2023-04-28T10:30:16;99214.53;;;26.79;37.31
25650;BME280;13505;45.196;5.696;2023-04-28T10:35:38;99211.41;;;26.51;38.81
25650;BME280;13505;45.196;5.696;2023-04-28T10:40:33;99196.31;;;26.65;38.18
25650;BME280;13505;45.196;5.696;2023-04-28T10:56:04;99170.59;;;27.40;37.84
25650;BME280;13505;45.196;5.696;2023-04-28T11:06:24;99165.56;;;27.29;37.45
25650;BME280;13505;45.196;5.696;2023-04-28T11:11:20;99157.59;;;27.59;37.91
25650;BME280;13505;45.196;5.696;2023-04-28T11:16:16;99154.75;;;27.76;37.57
25650;BME280;13505;45.196;5.696;2023-04-28T11:21:07;99147.34;;;27.69;36.90
25650;BME280;13505;45.196;5.696;2023-04-28T11:25:58;99132.94;;;27.22;37.87
25650;BME280;13505;45.196;5.696;2023-04-28T11:30:48;99121.28;;;27.45;37.74
25650;BME280;13505;45.196;5.696;2023-04-28T11:35:42;99109.69;;;27.60;37.76
25650;BME280;13505;45.196;5.696;2023-04-28T11:40:32;99109.13;;;27.41;38.20
25650;BME280;13505;45.196;5.696;2023-04-28T11:45:23;99095.25;;;27.82;37.65
25650;BME280;13505;45.196;5.696;2023-04-28T11:50:14;99085.06;;;28.14;37.08
25650;BME280;13505;45.196;5.696;2023-04-28T11:55:05;99079.56;;;28.08;38.00
25650;BME280;13505;45.196;5.696;2023-04-28T12:00:15;99061.72;;;27.98;37.61
25650;BME280;13505;45.196;5.696;2023-04-28T12:05:11;99062.16;;;27.87;37.74
25650;BME280;13505;45.196;5.696;2023-04-28T12:10:14;99064.28;;;27.62;37.84
25650;BME280;13505;45.196;5.696;2023-04-28T12:15:06;99061.47;;;27.55;38.07
25650;BME280;13505;45.196;5.696;2023-04-28T12:19:59;99061.91;;;27.43;38.31
25650;BME280;13505;45.196;5.696;2023-04-28T12:25:07;99045.72;;;27.58;38.20
25650;BME280;13505;45.196;5.696;2023-04-28T12:29:58;99053.22;;;27.48;38.72
25650;BME280;13505;45.196;5.696;2023-04-28T12:34:48;99058.34;;;27.43;38.88
25650;BME280;13505;45.196;5.696;2023-04-28T12:39:40;99058.41;;;27.58;38.62
25650;BME280;13505;45.196;5.696;2023-04-28T12:44:35;99048.53;;;27.65;38.36
25650;BME280;13505;45.196;5.696;2023-04-28T12:49:27;99058.81;;;27.70;38.63
25650;BME280;13505;45.196;5.696;2023-04-28T12:54:17;99044.69;;;27.60;39.50
25650;BME280;13505;45.196;5.696;2023-04-28T12:59:08;99046.84;;;27.64;39.61
25650;BME280;13505;45.196;5.696;2023-04-28T13:03:59;99038.97;;;27.69;39.14
25650;BME280;13505;45.196;5.696;2023-04-28T13:08:49;99036.75;;;28.03;38.16
25650;BME280;13505;45.196;5.696;2023-04-28T13:13:40;99033.66;;;28.36;37.54
25650;BME280;13505;45.196;5.696;2023-04-28T13:18:31;99038.53;;;28.63;37.30
25650;BME280;13505;45.196;5.696;2023-04-28T13:23:22;99042.88;;;28.57;36.66
25650;BME280;13505;45.196;5.696;2023-04-28T13:28:12;99032.34;;;28.47;37.31
25650;BME280;13505;45.196;5.696;2023-04-28T13:33:03;99037.94;;;28.46;37.47
25650;BME280;13505;45.196;5.696;2023-04-28T13:37:53;99032.34;;;28.47;37.42
25650;BME280;13505;45.196;5.696;2023-04-28T13:42:50;99033.13;;;28.26;37.83
25650;BME280;13505;45.196;5.696;2023-04-28T13:47:41;99018.81;;;28.32;37.87
25650;BME280;13505;45.196;5.696;2023-04-28T13:52:31;99022.06;;;28.12;37.94
25650;BME280;13505;45.196;5.696;2023-04-28T13:57:21;99016.94;;;28.03;38.15
25650;BME280;13505;45.196;5.696;2023-04-28T14:02:12;99001.53;;;27.58;39.06
25650;BME280;13505;45.196;5.696;2023-04-28T14:07:03;98991.59;;;27.12;39.52
25650;BME280;13505;45.196;5.696;2023-04-28T14:11:53;98993.06;;;27.23;39.20
25650;BME280;13505;45.196;5.696;2023-04-28T14:16:47;98999.53;;;27.37;39.36
25650;BME280;13505;45.196;5.696;2023-04-28T14:21:37;98989.41;;;27.30;39.46
25650;BME280;13505;45.196;5.696;2023-04-28T14:26:28;98990.97;;;27.10;39.70
25650;BME280;13505;45.196;5.696;2023-04-28T14:31:18;98978.94;;;26.89;40.24
25650;BME280;13505;45.196;5.696;2023-04-28T14:36:08;98977.31;;;27.03;40.31
25650;BME280;13505;45.196;5.696;2023-04-28T14:41:00;98974.03;;;26.93;40.75
25650;BME280;13505;45.196;5.696;2023-04-28T14:45:51;98969.19;;;26.80;40.06
25650;BME280;13505;45.196;5.696;2023-04-28T14:50:42;98969.50;;;26.61;40.86
25650;BME280;13505;45.196;5.696;2023-04-28T14:55:33;98964.00;;;26.46;40.86
25650;BME280;13505;45.196;5.696;2023-04-28T15:00:23;98949.53;;;26.63;40.52
25650;BME280;13505;45.196;5.696;2023-04-28T15:05:14;98958.56;;;26.55;41.08
25650;BME280;13505;45.196;5.696;2023-04-28T15:10:04;98959.09;;;26.50;41.18
25650;BME280;13505;45.196;5.696;2023-04-28T15:14:55;98956.16;;;26.37;41.62
25650;BME280;13505;45.196;5.696;2023-04-28T15:19:45;98951.84;;;26.19;41.95
25650;BME280;13505;45.196;5.696;2023-04-28T15:24:36;98939.28;;;25.95;42.44
25650;BME280;13505;45.196;5.696;2023-04-28T15:29:27;98946.22;;;25.89;42.45
25650;BME280;13505;45.196;5.696;2023-04-28T15:34:17;98934.81;;;25.70;42.61
25650;BME280;13505;45.196;5.696;2023-04-28T15:39:07;98933.50;;;25.66;42.93
25650;BME280;13505;45.196;5.696;2023-04-28T15:43:59;98924.22;;;25.60;43.30
25650;BME280;13505;45.196;5.696;2023-04-28T15:48:49;98928.16;;;25.41;43.46
25650;BME280;13505;45.196;5.696;2023-04-28T15:53:40;98923.47;;;25.18;44.19
25650;BME280;13505;45.196;5.696;2023-04-28T15:58:30;98922.63;;;25.01;44.38
25650;BME280;13505;45.196;5.696;2023-04-28T16:03:21;98910.88;;;24.94;44.81
25650;BME280;13505;45.196;5.696;2023-04-28T16:08:11;98914.75;;;25.00;44.42
25650;BME280;13505;45.196;5.696;2023-04-28T16:13:03;98910.34;;;24.90;44.32
25650;BME280;13505;45.196;5.696;2023-04-28T16:17:55;98914.41;;;24.86;44.58
25650;BME280;13505;45.196;5.696;2023-04-28T16:22:45;98912.69;;;24.60;45.28
25650;BME280;13505;45.196;5.696;2023-04-28T16:27:37;98916.06;;;24.46;45.75
25650;BME280;13505;45.196;5.696;2023-04-28T16:32:27;98908.97;;;24.36;45.41
25650;BME280;13505;45.196;5.696;2023-04-28T16:37:18;98911.50;;;24.46;45.68
25650;BME280;13505;45.196;5.696;2023-04-28T16:42:08;98907.63;;;24.41;45.60
25650;BME280;13505;45.196;5.696;2023-04-28T16:46:59;98901.53;;;24.30;45.86
25650;BME280;13505;45.196;5.696;2023-04-28T16:51:58;98905.94;;;24.23;45.81
25650;BME280;13505;45.196;5.696;2023-04-28T16:56:48;98894.94;;;24.16;46.27
25650;BME280;13505;45.196;5.696;2023-04-28T17:01:39;98899.31;;;24.09;46.56
25650;BME280;13505;45.196;5.696;2023-04-28T17:06:29;98903.66;;;24.02;46.89
25650;BME280;13505;45.196;5.696;2023-04-28T17:11:21;98901.44;;;23.97;47.25
25650;BME280;13505;45.196;5.696;2023-04-28T17:16:11;98899.91;;;23.94;47.03
25650;BME280;13505;45.196;5.696;2023-04-28T17:21:02;98900.75;;;23.87;47.12
25650;BME280;13505;45.196;5.696;2023-04-28T17:25:54;98897.53;;;23.83;47.86
25650;BME280;13505;45.196;5.696;2023-04-28T17:30:45;98899.53;;;23.81;47.42
25650;BME280;13505;45.196;5.696;2023-04-28T17:35:36;98906.22;;;23.68;47.90
25650;BME280;13505;45.196;5.696;2023-04-28T17:40:26;98900.28;;;23.56;48.43
25650;BME280;13505;45.196;5.696;2023-04-28T17:45:17;98900.94;;;23.50;48.39
25650;BME280;13505;45.196;5.696;2023-04-28T17:50:07;98904.06;;;23.37;49.21
25650;BME280;13505;45.196;5.696;2023-04-28T17:54:58;98915.63;;;23.30;49.23
25650;BME280;13505;45.196;5.696;2023-04-28T17:59:49;98905.78;;;23.20;49.39
